Time;durP1;ratioP1;P1;durP2;ratioP2;P2;SDS_P1;SDS_P2;PMS_P1;PMS_P2;Temp;Humidity;BMP_temperature;BMP_pressure;BME280_temperature;BME280_humidity;BME280_pressure;Samples;Min_cycle;Max_cycle;Signal;HPM_P1;HPM_P2
2024/01/11 00:01:10;;;;;;;62.08;23.70;;;;;;;-2.56;71.41;101092.44;6039132;23;20470;-90
2024/01/11 00:03:37;;;;;;;68.47;25.27;;;;;;;-2.59;71.64;101091.63;6089705;23;20033;-90
2024/01/11 00:06:04;;;;;;;67.18;25.73;;;;;;;-2.64;71.41;101091.69;6042403;23;20077;-90
2024/01/11 00:08:31;;;;;;;69.30;25.90;;;;;;;-2.68;71.91;101085.66;6114109;23;20029;-90
2024/01/11 00:10:58;;;;;;;69.18;24.77;;;;;;;-2.63;71.31;101085.59;6089384;23;20030;-89
2024/01/11 00:13:25;;;;;;;66.53;24.40;;;;;;;-2.74;72.33;101093.56;6090671;23;20350;-90
2024/01/11 00:15:53;;;;;;;64.15;23.75;;;;;;;-2.75;72.41;101090.97;6042446;23;20480;-90
2024/01/11 00:18:20;;;;;;;62.15;24.08;;;;;;;-2.85;72.87;101085.91;6066848;23;20105;-90
2024/01/11 00:20:47;;;;;;;62.55;24.63;;;;;;;-2.87;72.64;101094.59;6092664;23;20014;-90
2024/01/11 00:23:14;;;;;;;71.82;25.90;;;;;;;-2.89;72.85;101089.41;6091291;23;20034;-90
2024/01/11 00:25:40;;;;;;;62.00;23.80;;;;;;;-2.80;72.60;101097.97;6092592;23;20049;-91
2024/01/11 00:28:07;;;;;;;74.55;24.67;;;;;;;-2.80;72.93;101095.38;6092164;23;20092;-90
2024/01/11 00:30:34;;;;;;;63.58;22.33;;;;;;;-2.77;72.63;101093.59;6067829;23;20041;-90
2024/01/11 00:33:02;;;;;;;62.72;24.67;;;;;;;-2.76;72.87;101084.91;6091941;23;20026;-90
2024/01/11 00:35:29;;;;;;;71.45;25.45;;;;;;;-2.75;72.82;101086.63;6117171;23;20092;-90
2024/01/11 00:37:56;;;;;;;67.07;24.48;;;;;;;-2.76;73.00;101090.09;6091428;23;20030;-90
2024/01/11 00:40:23;;;;;;;67.43;23.75;;;;;;;-2.79;73.07;101084.97;6067967;23;20026;-90
2024/01/11 00:42:50;;;;;;;59.42;21.92;;;;;;;-2.74;72.72;101087.50;6065477;23;20061;-90
2024/01/11 00:45:16;;;;;;;58.53;21.02;;;;;;;-2.77;72.97;101090.13;6092025;23;20373;-90
2024/01/11 00:47:43;;;;;;;49.92;20.08;;;;;;;-2.87;73.16;101094.59;6068136;23;20096;-87
2024/01/11 00:50:10;;;;;;;53.67;20.35;;;;;;;-2.83;72.81;101093.66;6040448;23;20022;-90
2024/01/11 00:52:38;;;;;;;62.38;22.65;;;;;;;-2.77;73.24;101091.00;6038753;23;20483;-90
2024/01/11 00:55:05;;;;;;;55.75;20.88;;;;;;;-2.85;73.57;101098.91;6091010;23;20030;-87
2024/01/11 00:57:32;;;;;;;57.20;20.83;;;;;;;-2.81;73.14;101102.31;6069063;23;20081;-90
2024/01/11 00:59:59;;;;;;;44.67;17.98;;;;;;;-2.76;72.44;101103.09;6090261;23;20036;-90
2024/01/11 01:02:26;;;;;;;50.47;18.92;;;;;;;-2.75;72.21;101106.56;6092373;23;20096;-90
2024/01/11 01:04:53;;;;;;;58.95;21.95;;;;;;;-2.68;72.96;101110.81;6091976;23;20033;-90
2024/01/11 01:07:19;;;;;;;60.97;23.55;;;;;;;-2.69;73.45;101109.09;6115962;23;20026;-90
2024/01/11 01:09:46;;;;;;;64.85;22.20;;;;;;;-2.68;73.76;101109.06;6091214;23;20022;-90
2024/01/11 01:12:13;;;;;;;56.70;21.60;;;;;;;-2.68;73.75;101109.06;6091379;23;20026;-91
2024/01/11 01:14:40;;;;;;;55.83;21.45;;;;;;;-2.67;73.73;101105.59;6091878;23;20080;-91
2024/01/11 01:17:06;;;;;;;47.28;18.35;;;;;;;-2.59;71.42;101105.50;6091331;23;20022;-90
2024/01/11 01:19:33;;;;;;;44.33;18.15;;;;;;;-2.53;70.22;101094.13;6067216;23;20085;-91
2024/01/11 01:22:00;;;;;;;45.35;18.38;;;;;;;-2.52;69.83;101098.44;6091385;23;20022;-90
2024/01/11 01:24:27;;;;;;;53.33;19.35;;;;;;;-2.55;71.27;101101.94;6116415;23;20025;-90
2024/01/11 01:26:54;;;;;;;42.78;18.27;;;;;;;-2.55;70.50;101103.69;6067259;23;20030;-90
2024/01/11 01:29:20;;;;;;;51.88;19.10;;;;;;;-2.49;70.02;101106.22;6067189;23;20030;-90
2024/01/11 01:31:47;;;;;;;49.88;17.60;;;;;;;-2.50;69.13;101099.28;6116056;23;20684;-90
2024/01/11 01:34:14;;;;;;;49.40;19.73;;;;;;;-2.57;69.57;101098.53;6091178;23;20025;-91
2024/01/11 01:36:41;;;;;;;46.17;18.30;;;;;;;-2.50;70.00;101110.53;6067862;23;20022;-90
2024/01/11 01:39:08;;;;;;;51.08;18.95;;;;;;;-2.49;70.29;101114.03;6090805;23;20080;-91
2024/01/11 01:41:35;;;;;;;51.20;19.42;;;;;;;-2.58;70.49;101117.59;6067927;23;20022;-90
2024/01/11 01:44:02;;;;;;;46.10;18.88;;;;;;;-2.49;70.10;101119.22;6067935;23;20037;-90
2024/01/11 01:46:29;;;;;;;50.55;18.95;;;;;;;-2.47;69.20;101118.31;6091515;23;20029;-90
2024/01/11 01:48:57;;;;;;;50.70;19.08;;;;;;;-2.43;68.98;101119.13;6066817;23;20053;-89
2024/01/11 01:51:27;;;;;;;51.15;18.23;;;;;;;-2.45;68.95;101126.94;6091653;23;20358;-91
2024/01/11 01:53:56;;;;;;;52.03;18.52;;;;;;;-2.43;68.26;101133.00;6062111;23;20026;-91
2024/01/11 01:56:23;;;;;;;49.45;17.67;;;;;;;-2.41;68.08;101131.22;6065242;23;20029;-91
2024/01/11 01:58:51;;;;;;;48.33;18.48;;;;;;;-2.38;67.80;101138.13;6091367;23;20025;-91
2024/01/11 02:01:19;;;;;;;52.88;17.58;;;;;;;-2.36;68.04;101133.78;6067131;23;20046;-91
2024/01/11 02:03:46;;;;;;;39.22;17.33;;;;;;;-2.42;67.69;101134.72;6115823;23;20323;-91
2024/01/11 02:06:13;;;;;;;43.22;17.48;;;;;;;-2.37;67.64;101126.81;6091724;23;20022;-90
2024/01/11 02:08:42;;;;;;;43.70;17.25;;;;;;;-2.38;67.92;101126.88;6091338;23;20097;-90
2024/01/11 02:11:10;;;;;;;48.00;18.42;;;;;;;-2.37;67.66;101121.63;6090545;23;20092;-88
2024/01/11 02:13:37;;;;;;;50.97;18.08;;;;;;;-2.38;68.26;101124.28;6116550;23;20014;-91
2024/01/11 02:16:05;;;;;;;47.75;17.95;;;;;;;-2.36;67.90;101120.75;6067501;23;20045;-91
2024/01/11 02:18:31;;;;;;;52.13;17.95;;;;;;;-2.35;67.67;101129.41;6091328;23;20060;-91
2024/01/11 02:20:58;;;;;;;56.03;19.02;;;;;;;-2.32;67.28;101131.97;6091503;23;20050;-90
2024/01/11 02:23:25;;;;;;;51.95;18.25;;;;;;;-2.28;67.15;101131.06;6067244;23;20029;-91
2024/01/11 02:25:52;;;;;;;44.20;18.73;;;;;;;-2.28;66.78;101123.25;6067573;23;20034;-89
2024/01/11 02:28:19;;;;;;;51.83;18.70;;;;;;;-2.27;66.62;101133.63;6090463;23;20350;-91
2024/01/11 02:30:46;;;;;;;49.78;19.13;;;;;;;-2.31;66.71;101131.97;6091059;23;20025;-90
2024/01/11 02:33:15;;;;;;;50.53;18.73;;;;;;;-2.36;66.80;101130.31;6067084;23;20480;-91
2024/01/11 02:35:43;;;;;;;48.78;18.30;;;;;;;-2.26;66.75;101131.91;6068716;23;20696;-91
2024/01/11 02:38:13;;;;;;;48.40;18.50;;;;;;;-2.24;66.71;101130.09;6091842;23;20494;-91
2024/01/11 02:40:41;;;;;;;50.78;17.48;;;;;;;-2.37;66.71;101129.44;6066658;23;20032;-91
2024/01/11 02:43:09;;;;;;;48.05;17.00;;;;;;;-2.36;66.73;101135.53;6067093;23;20523;-91
2024/01/11 02:45:37;;;;;;;52.50;17.63;;;;;;;-2.29;66.61;101131.91;6091347;23;20021;-91
2024/01/11 02:48:03;;;;;;;47.80;18.08;;;;;;;-2.34;66.76;101126.81;6066576;23;20354;-90
2024/01/11 02:50:30;;;;;;;47.63;18.75;;;;;;;-2.37;66.66;101119.03;6042939;23;20098;-91
2024/01/11 02:52:57;;;;;;;48.17;18.15;;;;;;;-2.31;66.71;101128.50;6066793;23;20505;-90
2024/01/11 02:55:24;;;;;;;46.80;18.08;;;;;;;-2.37;66.76;101126.81;6091040;23;20025;-90
2024/01/11 02:57:50;;;;;;;46.45;18.20;;;;;;;-2.32;66.56;101132.81;6089910;23;20026;-91
2024/01/11 03:00:17;;;;;;;44.80;18.65;;;;;;;-2.32;66.74;101126.78;6066124;23;20455;-90
2024/01/11 03:02:44;;;;;;;48.63;18.00;;;;;;;-2.36;66.74;101120.75;6065388;23;20030;-90
2024/01/11 03:05:11;;;;;;;50.10;19.45;;;;;;;-2.37;66.73;101113.81;6066738;23;20465;-90
2024/01/11 03:07:39;;;;;;;44.42;18.10;;;;;;;-2.44;66.62;101115.69;6091069;23;20028;-90
2024/01/11 03:10:06;;;;;;;52.83;19.70;;;;;;;-2.43;66.91;101119.13;6042743;23;20033;-89
2024/01/11 03:12:32;;;;;;;49.92;19.40;;;;;;;-2.34;66.77;101118.13;6114646;23;20029;-90
2024/01/11 03:14:59;;;;;;;57.67;20.08;;;;;;;-2.40;66.71;101114.72;6090819;23;20022;-89
2024/01/11 03:17:26;;;;;;;47.90;20.23;;;;;;;-2.36;66.42;101114.72;6090287;23;20042;-90
2024/01/11 03:19:53;;;;;;;53.30;18.05;;;;;;;-2.37;66.50;101116.44;6089587;23;20029;-90
2024/01/11 03:22:20;;;;;;;53.05;19.95;;;;;;;-2.38;66.49;101106.91;6090158;23;20014;-90
2024/01/11 03:24:46;;;;;;;50.83;18.85;;;;;;;-2.36;66.54;101107.75;6090005;23;20092;-90
2024/01/11 03:27:13;;;;;;;52.90;19.33;;;;;;;-2.33;66.48;101105.09;6066554;23;20040;-89
2024/01/11 03:29:40;;;;;;;54.22;20.75;;;;;;;-2.30;66.23;101107.66;6113879;23;20408;-90
2024/01/11 03:32:07;;;;;;;52.83;20.48;;;;;;;-2.32;65.83;101103.34;6113841;23;20022;-90
2024/01/11 03:34:34;;;;;;;52.97;19.98;;;;;;;-2.27;66.15;101115.41;6065749;23;20109;-90
2024/01/11 03:37:01;;;;;;;52.00;18.80;;;;;;;-2.28;65.93;101115.44;6088578;23;20081;-90
2024/01/11 03:39:27;;;;;;;51.15;18.02;;;;;;;-2.29;65.99;101113.72;6089567;23;20106;-91
2024/01/11 03:41:54;;;;;;;48.38;19.15;;;;;;;-2.25;65.98;101107.59;6067233;23;20398;-90
2024/01/11 03:44:21;;;;;;;53.72;19.58;;;;;;;-2.29;66.41;101108.50;6090031;23;20069;-90
2024/01/11 03:46:48;;;;;;;51.95;20.98;;;;;;;-2.37;66.26;101108.63;6066195;23;20097;-90
2024/01/11 03:49:15;;;;;;;52.65;21.02;;;;;;;-2.45;66.24;101105.28;6089177;23;20410;-91
2024/01/11 03:51:42;;;;;;;48.58;18.52;;;;;;;-2.42;66.23;101103.50;6090457;23;20022;-91
2024/01/11 03:54:08;;;;;;;51.13;19.10;;;;;;;-2.41;66.60;101117.38;6069652;23;20093;-87
2024/01/11 03:56:39;;;;;;;55.33;21.75;;;;;;;-2.41;66.27;101114.78;6070506;23;20090;-91
2024/01/11 03:59:06;;;;;;;52.70;20.55;;;;;;;-2.45;66.27;101118.28;6091664;23;20044;-91
2024/01/11 04:01:33;;;;;;;55.33;21.02;;;;;;;-2.48;66.40;101110.53;6093616;23;20022;-90
2024/01/11 04:04:00;;;;;;;58.13;20.88;;;;;;;-2.46;66.11;101107.03;6070326;23;20029;-91
2024/01/11 04:06:26;;;;;;;55.78;19.80;;;;;;;-2.43;66.19;101103.53;6066651;23;20073;-91
2024/01/11 04:08:54;;;;;;;53.13;19.80;;;;;;;-2.48;66.15;101100.13;6093179;23;20101;-89
2024/01/11 04:11:21;;;;;;;50.97;20.88;;;;;;;-2.46;66.15;101112.22;6041413;23;20041;-91
2024/01/11 04:13:48;;;;;;;53.17;21.05;;;;;;;-2.41;65.83;101105.22;6041567;23;20015;-90
2024/01/11 04:16:15;;;;;;;54.22;20.48;;;;;;;-2.36;66.14;101109.50;6064930;23;20022;-90
2024/01/11 04:18:42;;;;;;;50.80;19.70;;;;;;;-2.41;66.08;101105.22;6064600;23;20024;-90
2024/01/11 04:21:23;;;;;;;56.90;20.73;;;;;;;-2.41;66.21;101101.75;6063129;23;20050;-89
2024/01/11 04:23:50;;;;;;;65.05;21.25;;;;;;;-2.37;65.95;101105.16;6092392;23;20079;-90
2024/01/11 04:26:17;;;;;;;53.97;20.48;;;;;;;-2.41;66.20;101109.56;6068535;23;20026;-89
2024/01/11 04:28:45;;;;;;;52.03;20.92;;;;;;;-2.43;66.17;101108.72;6065581;23;20069;-90
2024/01/11 04:31:12;;;;;;;52.42;19.15;;;;;;;-2.40;66.17;101109.53;6117160;23;20026;-90
2024/01/11 04:33:42;;;;;;;54.15;21.05;;;;;;;-2.41;66.28;101105.22;6092685;23;20042;-90
2024/01/11 04:36:09;;;;;;;47.97;19.63;;;;;;;-2.42;66.55;101102.63;6093018;23;20040;-90
2024/01/11 04:38:39;;;;;;;50.95;20.45;;;;;;;-2.44;66.22;101110.47;6093325;23;20365;-90
2024/01/11 04:41:10;;;;;;;63.40;20.55;;;;;;;-2.51;66.57;101108.84;6069517;23;20029;-90
2024/01/11 04:43:41;;;;;;;59.08;19.85;;;;;;;-2.56;66.48;101113.25;6093385;23;20096;-90
2024/01/11 04:46:19;;;;;;;52.95;21.17;;;;;;;-2.57;66.75;101113.25;6093103;23;20046;-90
2024/01/11 04:48:47;;;;;;;59.45;22.30;;;;;;;-2.54;66.44;101128.84;6092614;23;20021;-89
2024/01/11 04:51:15;;;;;;;59.20;21.90;;;;;;;-2.60;66.56;101127.16;6092394;23;20018;-90
2024/01/11 04:53:51;;;;;;;58.92;20.20;;;;;;;-2.62;66.65;101121.13;6092307;23;20020;-90
2024/01/11 04:56:18;;;;;;;63.45;22.13;;;;;;;-2.65;66.93;101122.00;6065725;23;20028;-90
2024/01/11 04:58:45;;;;;;;58.63;22.40;;;;;;;-2.63;67.04;101125.44;6091116;23;20026;-91
2024/01/11 05:01:15;;;;;;;58.78;23.20;;;;;;;-2.65;66.54;101129.81;6092091;23;20049;-91
2024/01/11 05:03:43;;;;;;;62.58;25.23;;;;;;;-2.62;66.76;101118.53;6081140;23;20018;-89
2024/01/11 05:06:21;;;;;;;60.50;23.30;;;;;;;-2.61;67.07;101128.03;6094616;23;20454;-90
2024/01/11 05:08:52;;;;;;;56.38;21.70;;;;;;;-2.58;66.67;101128.00;6114329;23;20093;-88
2024/01/11 05:11:20;;;;;;;63.30;20.80;;;;;;;-2.56;66.72;101133.19;6066862;23;20058;-93
2024/01/11 05:13:47;;;;;;;66.82;22.30;;;;;;;-2.55;66.65;101135.75;6118651;23;20026;-91
2024/01/11 05:16:22;;;;;;;61.08;21.40;;;;;;;-2.55;66.56;101138.34;6095122;23;20510;-93
2024/01/11 05:18:50;;;;;;;59.97;20.55;;;;;;;-2.58;66.56;101141.00;6093397;23;20022;-92
2024/01/11 05:21:18;;;;;;;57.45;22.17;;;;;;;-2.57;66.72;101134.06;6094138;23;20022;-92
2024/01/11 05:23:45;;;;;;;54.70;21.95;;;;;;;-2.58;66.63;101133.19;6096428;23;20018;-92
2024/01/11 05:26:13;;;;;;;53.85;21.02;;;;;;;-2.56;66.72;101135.78;6072029;23;20097;-94
2024/01/11 05:28:40;;;;;;;49.08;20.90;;;;;;;-2.55;67.09;101130.56;6065853;23;20026;-89
2024/01/11 05:31:11;;;;;;;56.03;20.67;;;;;;;-2.53;66.66;101130.53;6063937;23;20108;-86
2024/01/11 05:33:38;;;;;;;53.92;20.75;;;;;;;-2.53;66.31;101136.59;6037668;23;20031;-86
2024/01/11 05:36:06;;;;;;;60.15;20.10;;;;;;;-2.54;66.95;101124.50;6011597;23;20466;-88
2024/01/11 05:38:34;;;;;;;53.90;21.40;;;;;;;-2.63;67.57;101132.41;6089866;23;20489;-89
2024/01/11 05:41:01;;;;;;;48.80;19.67;;;;;;;-2.64;67.62;101138.50;6114150;23;20057;-89
2024/01/11 05:43:28;;;;;;;49.72;21.05;;;;;;;-2.65;67.81;101140.22;6067636;23;20018;-88
2024/01/11 05:45:55;;;;;;;55.60;20.58;;;;;;;-2.68;67.86;101140.25;6091110;23;20030;-88
2024/01/11 05:48:22;;;;;;;54.22;19.77;;;;;;;-2.69;67.97;101145.50;6088993;23;20034;-88
2024/01/11 05:50:49;;;;;;;49.05;19.70;;;;;;;-2.69;67.74;101150.69;6115244;23;20628;-88
2024/01/11 05:53:17;;;;;;;56.75;21.17;;;;;;;-2.74;67.97;101162.91;6066699;23;20049;-88
2024/01/11 05:55:44;;;;;;;51.80;22.02;;;;;;;-2.68;67.29;101170.59;6066910;23;20029;-88
2024/01/11 05:58:10;;;;;;;54.90;21.42;;;;;;;-2.68;67.41;101163.66;6039823;23;20032;-88
2024/01/11 06:00:37;;;;;;;52.70;20.73;;;;;;;-2.76;67.86;101159.44;6065012;23;20518;-89
2024/01/11 06:03:04;;;;;;;54.85;22.00;;;;;;;-2.74;67.88;101152.50;6038991;23;20028;-88
2024/01/11 06:05:31;;;;;;;57.30;20.60;;;;;;;-2.74;67.12;101160.28;6065781;23;20598;-89
2024/01/11 06:07:59;;;;;;;59.20;21.67;;;;;;;-2.67;66.92;101152.41;6066603;23;20021;-88
2024/01/11 06:10:25;;;;;;;54.33;20.30;;;;;;;-2.63;67.17;101150.59;6090478;23;20049;-88
2024/01/11 06:12:52;;;;;;;57.25;20.83;;;;;;;-2.75;67.92;101150.75;6040439;23;20017;-89
2024/01/11 06:15:19;;;;;;;55.30;20.50;;;;;;;-2.83;68.43;101154.31;6062118;23;20510;-88
2024/01/11 06:17:46;;;;;;;57.33;20.70;;;;;;;-2.74;67.95;101157.69;6089725;23;20521;-88
2024/01/11 06:20:13;;;;;;;56.28;21.35;;;;;;;-2.71;67.18;101161.09;6090346;23;20048;-89
2024/01/11 06:22:41;;;;;;;56.40;21.35;;;;;;;-2.74;67.33;101163.75;6042881;23;20458;-88
2024/01/11 06:25:11;;;;;;;54.92;21.27;;;;;;;-2.71;67.01;101158.50;6090697;23;20041;-88
2024/01/11 06:27:38;;;;;;;59.80;21.20;;;;;;;-2.67;67.18;101167.13;6090742;23;20025;-88
2024/01/11 06:30:06;;;;;;;56.78;20.95;;;;;;;-2.72;67.34;101163.72;6090520;23;20640;-88
2024/01/11 06:32:33;;;;;;;62.20;22.58;;;;;;;-2.74;66.84;101165.50;6090667;23;20398;-88
2024/01/11 06:35:01;;;;;;;48.17;20.92;;;;;;;-2.69;66.74;101163.69;6066344;23;20454;-89
2024/01/11 06:37:29;;;;;;;52.40;20.80;;;;;;;-2.74;66.85;101160.28;6090740;23;20041;-88
2024/01/11 06:39:55;;;;;;;57.20;21.85;;;;;;;-2.75;67.18;101161.16;6089814;23;20447;-88
2024/01/11 06:42:22;;;;;;;56.60;21.17;;;;;;;-2.79;67.63;101168.16;6090416;23;20474;-88
2024/01/11 06:44:49;;;;;;;56.17;20.75;;;;;;;-2.79;67.45;101172.50;6090677;23;20507;-89
2024/01/11 06:47:16;;;;;;;63.65;22.55;;;;;;;-2.83;67.25;101182.91;6090188;23;20026;-88
2024/01/11 06:49:43;;;;;;;59.78;23.33;;;;;;;-2.80;67.30;101184.59;6089666;23;20018;-88
2024/01/11 06:52:10;;;;;;;63.17;24.08;;;;;;;-2.85;68.02;101184.69;6089840;23;20018;-88
2024/01/11 06:54:37;;;;;;;65.05;23.23;;;;;;;-2.89;69.65;101195.13;6090330;23;20021;-87
2024/01/11 06:57:04;;;;;;;197.98;59.33;;;;;;;-2.97;70.73;101196.94;6066277;23;20084;-88
2024/01/11 06:59:31;;;;;;;80.18;29.50;;;;;;;-3.04;70.89;101206.53;6066555;23;20014;-88
2024/01/11 07:01:57;;;;;;;61.10;22.98;;;;;;;-3.02;69.17;101207.38;6090336;23;20029;-88
2024/01/11 07:04:24;;;;;;;74.53;25.73;;;;;;;-2.97;69.00;101215.16;6090761;23;20022;-89
2024/01/11 07:06:51;;;;;;;90.20;31.33;;;;;;;-2.96;68.65;101211.66;6090775;23;20025;-88
2024/01/11 07:09:18;;;;;;;68.13;21.20;;;;;;;-2.94;68.31;101210.75;6089277;23;20025;-89
2024/01/11 07:11:45;;;;;;;115.82;35.55;;;;;;;-2.92;68.29;101214.22;6090716;23;20010;-87
2024/01/11 07:14:11;;;;;;;73.95;26.48;;;;;;;-2.97;68.37;101225.53;6066125;23;20026;-88
2024/01/11 07:16:39;;;;;;;63.50;23.67;;;;;;;-2.95;68.01;101221.16;6065916;23;20030;-88
2024/01/11 07:19:06;;;;;;;81.32;27.90;;;;;;;-2.97;68.07;101234.19;6065414;23;20026;-88
2024/01/11 07:21:32;;;;;;;78.72;27.50;;;;;;;-2.95;68.24;101236.75;6066638;23;20055;-88
2024/01/11 07:23:59;;;;;;;64.13;24.67;;;;;;;-2.98;68.62;101245.44;6089877;23;20033;-89
2024/01/11 07:26:26;;;;;;;79.28;27.67;;;;;;;-2.99;68.02;101250.69;6090256;23;20517;-88
2024/01/11 07:28:56;;;;;;;62.38;24.77;;;;;;;-2.98;67.96;101260.19;6066186;23;20022;-89
2024/01/11 07:31:23;;;;;;;79.13;28.85;;;;;;;-3.03;68.39;101255.03;6089941;23;20030;-88
2024/01/11 07:33:50;;;;;;;74.35;27.90;;;;;;;-2.96;67.67;101253.25;6089945;23;20030;-89
2024/01/11 07:36:17;;;;;;;62.72;24.65;;;;;;;-2.96;67.90;101248.91;6066900;23;20481;-89
2024/01/11 07:38:44;;;;;;;60.15;23.23;;;;;;;-3.07;69.15;101248.16;6089940;23;20525;-88
2024/01/11 07:41:11;;;;;;;60.75;21.70;;;;;;;-2.93;68.46;101250.59;6089718;23;20098;-88
2024/01/11 07:43:40;;;;;;;57.70;21.27;;;;;;;-2.93;68.74;101248.00;6090208;23;20026;-89
2024/01/11 07:46:19;;;;;;;56.55;20.55;;;;;;;-2.86;68.06;101249.66;6071294;23;20597;-88
2024/01/11 07:48:59;;;;;;;68.50;25.42;;;;;;;-2.88;68.16;101256.63;6067103;23;20092;-89
2024/01/11 07:51:27;;;;;;;69.10;25.90;;;;;;;-2.93;68.60;101261.00;6090349;23;20105;-89
2024/01/11 07:53:53;;;;;;;66.15;23.27;;;;;;;-2.95;69.37;101268.81;6067399;23;20016;-89
2024/01/11 07:56:20;;;;;;;53.70;21.48;;;;;;;-2.95;69.23;101268.81;6089405;23;20096;-88
2024/01/11 07:58:47;;;;;;;54.65;22.23;;;;;;;-2.99;69.55;101256.72;6065919;23;20100;-89
2024/01/11 08:01:16;;;;;;;65.05;23.25;;;;;;;-2.99;70.10;101261.06;6090112;23;20410;-88
2024/01/11 08:03:47;;;;;;;53.10;21.30;;;;;;;-2.87;68.77;101261.81;6114421;23;20033;-88
2024/01/11 08:06:14;;;;;;;61.00;20.13;;;;;;;-2.86;68.75;101276.50;6042924;23;20059;-88
2024/01/11 08:08:42;;;;;;;59.88;22.00;;;;;;;-2.87;69.38;101274.81;6090277;23;20021;-88
2024/01/11 08:11:10;;;;;;;62.33;24.25;;;;;;;-2.93;71.00;101271.38;6089531;23;20034;-88
2024/01/11 08:13:38;;;;;;;59.72;22.33;;;;;;;-2.95;71.14;101267.94;6089626;23;20029;-89
2024/01/11 08:16:07;;;;;;;72.82;24.02;;;;;;;-2.99;72.26;101274.06;6090210;23;20404;-89
2024/01/11 08:18:34;;;;;;;66.97;22.65;;;;;;;-2.95;71.59;101274.03;6066214;23;20036;-90
2024/01/11 08:21:01;;;;;;;60.75;21.27;;;;;;;-2.97;71.41;101278.38;6088340;23;20046;-88
2024/01/11 08:23:28;;;;;;;64.63;24.02;;;;;;;-2.96;70.60;101274.03;6090065;23;20454;-88
2024/01/11 08:25:54;;;;;;;62.10;22.10;;;;;;;-2.89;69.51;101255.75;6065762;23;20017;-88
2024/01/11 08:28:22;;;;;;;63.40;22.33;;;;;;;-2.86;69.05;101265.25;6065500;23;20061;-88
2024/01/11 08:30:49;;;;;;;57.78;22.40;;;;;;;-2.80;69.53;101279.94;6090903;23;20010;-88
2024/01/11 08:33:16;;;;;;;62.45;24.45;;;;;;;-2.77;69.05;101272.97;6065796;23;20046;-88
2024/01/11 08:35:43;;;;;;;59.55;21.05;;;;;;;-2.74;68.99;101270.34;6066180;23;20044;-89
2024/01/11 08:38:10;;;;;;;60.35;21.38;;;;;;;-2.74;68.74;101278.13;6089676;23;20026;-88
2024/01/11 08:40:37;;;;;;;64.00;22.95;;;;;;;-2.76;69.39;101277.28;6091686;23;20018;-88
2024/01/11 08:43:06;;;;;;;55.25;20.73;;;;;;;-2.73;68.66;101281.59;6091512;23;20379;-89
2024/01/11 08:45:33;;;;;;;52.50;20.77;;;;;;;-2.73;68.24;101298.03;6115463;23;20029;-88
2024/01/11 08:48:00;;;;;;;49.65;20.88;;;;;;;-2.69;68.36;101298.91;6038473;23;20042;-88
2024/01/11 08:50:27;;;;;;;55.05;21.05;;;;;;;-2.70;68.05;101278.94;6067558;23;20045;-88
2024/01/11 08:52:55;;;;;;;51.10;19.85;;;;;;;-2.66;67.89;101304.91;6039701;23;20030;-87
2024/01/11 08:55:22;;;;;;;55.55;20.52;;;;;;;-2.68;68.24;101303.19;6039726;23;20026;-88
2024/01/11 08:57:50;;;;;;;54.47;20.63;;;;;;;-2.68;68.28;101305.81;6063053;23;20030;-88
2024/01/11 09:00:17;;;;;;;57.88;22.13;;;;;;;-2.67;68.19;101298.00;6043139;23;20017;-88
2024/01/11 09:02:45;;;;;;;52.20;20.67;;;;;;;-2.63;68.22;101297.06;6092534;23;20517;-88
2024/01/11 09:05:14;;;;;;;48.25;20.60;;;;;;;-2.57;67.96;101290.97;6091965;23;20060;-88
2024/01/11 09:07:42;;;;;;;49.47;21.42;;;;;;;-2.54;67.82;101292.69;6091883;23;20013;-88
2024/01/11 09:10:09;;;;;;;52.90;20.02;;;;;;;-2.51;67.88;101290.88;6091595;23;20034;-88
2024/01/11 09:12:36;;;;;;;48.88;20.42;;;;;;;-2.46;67.87;101286.50;6068258;23;20101;-88
2024/01/11 09:15:04;;;;;;;55.17;19.38;;;;;;;-2.42;67.82;101293.41;6067267;23;20033;-87
2024/01/11 09:17:31;;;;;;;55.28;19.85;;;;;;;-2.40;67.54;101290.75;6091216;23;20701;-87
2024/01/11 09:19:58;;;;;;;59.58;19.15;;;;;;;-2.36;67.55;101295.06;6091432;23;20403;-88
2024/01/11 09:22:25;;;;;;;56.33;19.02;;;;;;;-2.36;67.52;101286.41;6092050;23;20049;-88
2024/01/11 09:24:52;;;;;;;49.38;19.48;;;;;;;-2.36;67.54;101287.25;6091753;23;20018;-88
2024/01/11 09:27:19;;;;;;;50.85;19.90;;;;;;;-2.33;67.53;101291.56;6067924;23;20382;-87
2024/01/11 09:29:46;;;;;;;54.38;19.90;;;;;;;-2.31;67.42;101282.84;6091666;23;20030;-87
2024/01/11 09:32:13;;;;;;;50.00;18.98;;;;;;;-2.32;67.36;101283.72;6114154;23;20089;-88
2024/01/11 09:34:40;;;;;;;55.58;19.85;;;;;;;-2.28;67.38;101272.41;6091504;23;20081;-88
2024/01/11 09:37:07;;;;;;;51.15;19.70;;;;;;;-2.25;67.28;101277.56;6091320;23;20441;-87
2024/01/11 09:39:34;;;;;;;50.08;20.25;;;;;;;-2.24;67.09;101281.03;6067278;23;20073;-87
2024/01/11 09:42:11;;;;;;;56.00;19.85;;;;;;;-2.20;67.03;101282.72;6066950;23;20029;-87
2024/01/11 09:44:39;;;;;;;52.97;19.63;;;;;;;-2.24;67.06;101278.41;6066757;23;20335;-87
2024/01/11 09:47:08;;;;;;;52.50;19.75;;;;;;;-2.21;67.28;101273.19;6091246;23;20097;-88
2024/01/11 09:49:38;;;;;;;53.00;21.60;;;;;;;-2.22;67.64;101279.25;6090913;23;20097;-87
2024/01/11 09:52:08;;;;;;;48.38;19.42;;;;;;;-2.21;67.32;101275.81;6091788;23;20022;-88
2024/01/11 09:54:35;;;;;;;43.25;19.67;;;;;;;-2.24;67.17;101268.00;6115335;23;20021;-87
2024/01/11 09:57:03;;;;;;;44.47;17.25;;;;;;;-2.24;67.40;101271.50;6091172;23;20030;-88
2024/01/11 09:59:30;;;;;;;49.60;20.23;;;;;;;-2.23;67.87;101273.22;6114862;23;20442;-87
2024/01/11 10:01:57;;;;;;;60.20;20.27;;;;;;;-2.19;68.25;101277.50;6067781;23;20021;-87
2024/01/11 10:04:24;;;;;;;59.38;20.27;;;;;;;-2.06;68.50;101291.22;6115056;23;20105;-87
2024/01/11 10:06:52;;;;;;;49.03;18.58;;;;;;;-2.09;68.11;101300.78;6068871;23;20018;-87
2024/01/11 10:09:19;;;;;;;54.20;21.48;;;;;;;-2.08;68.15;101292.97;6091570;23;20022;-86
2024/01/11 10:11:46;;;;;;;51.38;19.27;;;;;;;-2.07;68.35;101301.63;6066495;23;20033;-88
2024/01/11 10:14:13;;;;;;;49.90;19.40;;;;;;;-2.04;68.08;101293.78;6090260;23;20454;-88
2024/01/11 10:16:46;;;;;;;57.28;21.38;;;;;;;-2.07;68.10;101301.63;6067080;23;20128;-88
2024/01/11 10:19:15;;;;;;;53.38;19.77;;;;;;;-2.05;67.86;101320.72;6061349;23;20451;-87
2024/01/11 10:21:42;;;;;;;55.28;21.08;;;;;;;-2.03;68.01;101311.13;6090753;23;20029;-87
2024/01/11 10:24:09;;;;;;;64.68;22.45;;;;;;;-1.98;68.10;101311.94;6067937;23;20022;-88
2024/01/11 10:26:36;;;;;;;49.88;20.92;;;;;;;-2.01;67.67;101292.03;6067538;23;20044;-87
2024/01/11 10:29:03;;;;;;;55.50;20.65;;;;;;;-1.92;67.88;101287.56;6090856;23;20416;-87
2024/01/11 10:31:30;;;;;;;54.65;21.80;;;;;;;-1.90;67.64;101284.06;6090862;23;20018;-87
2024/01/11 10:33:57;;;;;;;49.53;19.77;;;;;;;-1.85;67.43;101269.22;6066868;23;20030;-87
2024/01/11 10:36:25;;;;;;;55.85;20.85;;;;;;;-1.77;67.44;101263.91;6091236;23;20089;-87
2024/01/11 10:38:53;;;;;;;47.17;20.73;;;;;;;-1.76;67.33;101260.41;6115424;23;20025;-87
2024/01/11 10:41:20;;;;;;;52.05;20.38;;;;;;;-1.72;67.13;101249.09;6037964;23;20026;-87
2024/01/11 10:43:48;;;;;;;55.35;19.73;;;;;;;-1.67;67.28;101249.88;6090259;23;20347;-87
2024/01/11 10:46:16;;;;;;;54.13;20.23;;;;;;;-1.62;67.21;101255.00;6090559;23;20022;-87
2024/01/11 10:48:44;;;;;;;56.22;19.25;;;;;;;-1.58;66.82;101264.47;6089801;23;20025;-87
2024/01/11 10:51:12;;;;;;;57.45;21.23;;;;;;;-1.61;67.00;101262.78;6090594;23;20041;-88
2024/01/11 10:53:43;;;;;;;51.35;19.40;;;;;;;-1.61;67.26;101257.56;6067016;23;20022;-87
2024/01/11 10:56:14;;;;;;;52.63;19.55;;;;;;;-1.58;67.15;101267.09;6066473;23;20041;-87
2024/01/11 10:58:42;;;;;;;52.88;18.35;;;;;;;-1.63;66.70;101267.19;6090940;23;20088;-87
2024/01/11 11:01:10;;;;;;;44.63;18.35;;;;;;;-1.61;66.36;101267.13;6039031;23;20026;-86
2024/01/11 11:03:38;;;;;;;50.35;19.30;;;;;;;-1.56;66.99;101258.38;6112541;23;20028;-87
2024/01/11 11:06:07;;;;;;;56.28;19.27;;;;;;;-1.56;66.91;101257.50;6091164;23;20096;-87
2024/01/11 11:08:34;;;;;;;53.42;19.70;;;;;;;-1.51;66.81;101257.44;6090385;23;20370;-87
2024/01/11 11:11:06;;;;;;;45.58;18.63;;;;;;;-1.46;66.49;101247.81;6066780;23;20022;-87